Flight Track Log - Related Links

Times and Time Zones

All times are in EDT time to prevent confusion due to time zone crossing. See the EJA396 flight status page for this flight to view local times or setup timezone preferences in your user account.


Time Position Orientation Groundspeed Altitude Reporting Facility
EDT Latitude Longitude Course Direction KTS MPH feet Rate Location/Type
Wed 09:04:08 PM 40.7500 -74.4000 37° Northeast 201 231 2,900  Level New York TRACON
Wed 09:05:08 PM 40.7833 -74.3500 49° Northeast 265 305 4,400 1,550 Climbing New York TRACON
Wed 09:06:08 PM 40.8500 -74.3000 30° Northeast 271 312 6,000 800 Climbing New York TRACON
Wed 09:07:08 PM 40.9167 -74.2667 21° North 280 322 6,000  Level New York TRACON
Wed 09:08:14 PM 41.0000 -74.2167 24° Northeast 275 316 6,000 200 Level New York TRACON
Wed 09:09:00 PM 40.9514 -74.1320 37° Northeast  Level FlightAware Approximate
Wed 09:09:08 PM 41.0667 -74.1833 21° North 269 310 6,400  Level New York TRACON
Wed 09:10:09 PM 41.1333 -74.1500 21° North 279 321 9,000 1,605 Climbing New York TRACON
Wed 09:12:00 PM 41.1981 -73.9656 65° Northeast 327 376 11,000 1,207 Climbing Boston Center
Wed 09:12:58 PM 41.2225 -73.8475 75° East 346 398 12,400 1,831 Climbing Boston Center
Wed 09:13:58 PM 41.2533 -73.7047 74° East 358 412 14,600 1,279 Climbing Boston Center
Wed 09:15:00 PM 41.2817 -73.5836 73° East 371 427 15,000 197 Climbing Boston Center
Wed 09:16:00 PM 41.3311 -73.4408 65° Northeast 379 436 15,000  Level Boston Center
Wed 09:16:59 PM 41.3758 -73.3169 64° Northeast 379 436 15,000  Level Boston Center
Wed 09:17:59 PM 41.4225 -73.1875 64° Northeast 374 430 15,000  Level Boston Center
Wed 09:18:58 PM 41.4672 -73.0606 65° Northeast 380 437 15,000  Level Boston Center
Wed 09:19:58 PM 41.5094 -72.9308 66° East 380 437 15,000  Level Boston Center
Wed 09:20:59 PM 41.5536 -72.8064 65° Northeast 375 432 15,000  Level Boston Center
Wed 09:22:00 PM 41.6000 -72.6761 65° Northeast 380 437 15,000 -101 Level Boston Center
Wed 09:22:58 PM 41.6458 -72.5483 64° Northeast 380 437 14,800 -540 Descending Boston Center
Wed 09:23:40 PM 41.6981 -72.4872 41° Northeast 376 433 14,100 -989 Descending Boston Center
Wed 09:24:29 PM 41.7647 -72.4150 39° Northeast 371 427 13,300 -987 Descending Boston Center
Wed 09:24:59 PM 41.8044 -72.3706 40° Northeast 369 425 12,800 -1,000 Descending Boston Center
Wed 09:25:29 PM 41.8439 -72.3286 38° Northeast 369 425 12,300 -984 Descending Boston Center
Wed 09:26:00 PM 41.8833 -72.2811 42° Northeast 369 425 11,800 -1,180 Descending Boston Center
Wed 09:26:30 PM 41.9208 -72.2419 38° Northeast 341 392 11,100 -1,400 Descending Boston Center
Wed 09:27:00 PM 41.9458 -72.2083 45° Northeast 347 399 10,400 -1,600 Descending Boston Center
Wed 09:28:00 PM 42.0144 -72.1328 39° Northeast 303 349 8,700 -1,627 Descending Boston Center
Wed 09:28:58 PM 42.0706 -72.0681 41° Northeast 292 336 7,200 -1,576 Descending Boston Center
Wed 09:29:58 PM 42.1347 -71.9950 40° Northeast 276 318 5,600 -1,091 Descending Boston Center
Wed 09:30:59 PM 42.1867 -71.9358 40° Northeast 276 318 5,000 -298 Descending Boston Center
Wed 09:31:59 PM 42.2469 -71.8708 39° Northeast 281 323 5,000  Level Boston Center
Wed 09:33:00 PM 42.3089 -71.8000 40° Northeast 275 316 5,000  Level Boston Center
Wed 09:33:59 PM 42.3689 -71.7347 39° Northeast 275 316 5,000 -303 Level Boston Center
Wed 09:34:59 PM 42.4144 -71.6667 48° Northeast 275 316 4,400 -942 Descending Boston Center
Wed 09:36:00 PM 42.4639 -71.5958 47° Northeast 239 275 3,100 -737 Descending Boston Center
Wed 09:36:53 PM 42.5000 -71.5333 52° Northeast 221 254 3,000 -54 Descending KA90
Wed 09:37:52 PM 42.5167 -71.4667 71° East 218 251 3,000  Level KA90
Wed 09:38:58 PM 42.5500 -71.3833 61° Northeast 219 252 3,000  Level KA90
Wed 09:39:52 PM 42.5833 -71.3167 56° Northeast 218 251 3,000  Level KA90
Wed 09:40:58 PM 42.6000 -71.2333 75° East 218 251 3,000  Level KA90
Wed 09:41:52 PM 42.6167 -71.1667 71° East 208 239 3,000 -526 Level KA90
Wed 09:42:52 PM 42.6167 -71.0833 90° East 191 220 2,000 -1,000 Descending KA90

Login

Don't have an account? Register now (free) for customized features, flight alerts, and more!